Time;durP1;ratioP1;P1;durP2;ratioP2;P2;SDS_P1;SDS_P2;PMS_P1;PMS_P2;Temp;Humidity;BMP_temperature;BMP_pressure;BME280_temperature;BME280_humidity;BME280_pressure;Samples;Min_cycle;Max_cycle;Signal;HPM_P1;HPM_P2
2021/07/03 00:00:45;;;;;;;17.55;12.07;;;;;;;16.35;nan;100772.84;5065544;28;20032;-76
2021/07/03 00:03:10;;;;;;;16.38;12.15;;;;;;;16.31;nan;100772.94;5064648;28;20033;-76
2021/07/03 00:05:35;;;;;;;14.35;10.75;;;;;;;16.26;nan;100772.19;5062747;28;20051;-76
2021/07/03 00:08:01;;;;;;;14.45;11.38;;;;;;;16.22;nan;100771.41;5059443;28;20041;-76
2021/07/03 00:10:26;;;;;;;17.98;12.38;;;;;;;16.17;nan;100768.84;5063378;28;20028;-76
2021/07/03 00:12:52;;;;;;;16.25;10.88;;;;;;;16.12;nan;100769.88;5065753;28;20403;-76
2021/07/03 00:15:21;;;;;;;12.75;9.57;;;;;;;16.08;nan;100771.75;5065184;28;20036;-76
2021/07/03 00:17:54;;;;;;;15.07;12.00;;;;;;;15.97;nan;100768.47;5062976;28;20051;-76
2021/07/03 00:20:21;;;;;;;14.05;10.40;;;;;;;15.97;nan;100768.47;5062844;28;20033;-76
2021/07/03 00:22:47;;;;;;;12.82;9.35;;;;;;;15.92;nan;100767.72;5064370;28;20493;-76
2021/07/03 00:25:13;;;;;;;14.52;10.63;;;;;;;15.83;nan;100762.63;5064832;28;20033;-76
2021/07/03 00:27:39;;;;;;;13.95;10.15;;;;;;;15.79;nan;100756.47;5062731;28;20124;-76
2021/07/03 00:30:06;;;;;;;11.85;9.40;;;;;;;15.72;nan;100761.09;5063243;28;20056;-76
2021/07/03 00:32:31;;;;;;;16.60;11.10;;;;;;;15.66;nan;100758.53;5064851;28;20047;-76
2021/07/03 00:34:56;;;;;;;16.00;11.80;;;;;;;15.57;nan;100766.75;5062254;28;20491;-76
2021/07/03 00:37:21;;;;;;;13.95;10.82;;;;;;;15.55;nan;100765.88;5064583;28;20060;-76
2021/07/03 00:39:47;;;;;;;13.30;10.35;;;;;;;15.50;nan;100765.13;5064401;28;20028;-76
2021/07/03 00:42:12;;;;;;;17.42;10.82;;;;;;;15.46;nan;100764.31;5058102;28;20095;-76
2021/07/03 00:44:37;;;;;;;13.25;9.95;;;;;;;15.52;nan;100768.63;5062252;28;20433;-76
2021/07/03 00:47:08;;;;;;;14.45;10.50;;;;;;;15.52;nan;100774.81;5062778;28;20033;-76
2021/07/03 00:49:34;;;;;;;17.05;11.75;;;;;;;15.56;nan;100776.50;5060979;28;20063;-75
2021/07/03 00:52:01;;;;;;;13.77;10.20;;;;;;;15.61;nan;100780.84;5062958;28;20498;-76
2021/07/03 00:54:28;;;;;;;15.57;9.77;;;;;;;15.64;nan;100779.00;5062919;28;20121;-76
2021/07/03 00:57:04;;;;;;;14.40;9.80;;;;;;;15.64;nan;100781.66;5066709;28;20036;-76
2021/07/03 00:59:34;;;;;;;12.45;8.93;;;;;;;15.61;nan;100779.03;5063420;28;20501;-76
2021/07/03 01:02:03;;;;;;;12.60;9.13;;;;;;;15.61;nan;100781.69;5041452;28;20034;-76
2021/07/03 01:04:29;;;;;;;11.93;8.50;;;;;;;15.59;nan;100774.66;5062348;28;20029;-76
2021/07/03 01:06:54;;;;;;;11.10;8.18;;;;;;;15.60;nan;100776.44;5043904;28;20403;-76
2021/07/03 01:09:20;;;;;;;12.63;8.90;;;;;;;15.60;nan;100776.44;5060669;28;20029;-76
2021/07/03 01:11:46;;;;;;;8.38;6.97;;;;;;;15.61;nan;100780.84;5044922;28;20048;-76
2021/07/03 01:14:12;;;;;;;10.50;7.45;;;;;;;15.60;nan;100771.13;5063117;28;20112;-76
2021/07/03 01:16:37;;;;;;;9.95;7.65;;;;;;;15.58;nan;100773.78;5060533;28;20029;-76
2021/07/03 01:19:03;;;;;;;12.25;8.57;;;;;;;15.54;nan;100775.66;5061795;28;20082;-76
2021/07/03 01:21:29;;;;;;;11.60;8.20;;;;;;;15.51;nan;100777.50;5064298;28;20020;-76
2021/07/03 01:23:55;;;;;;;11.15;7.32;;;;;;;15.50;nan;100781.06;5061582;28;20098;-76
2021/07/03 01:26:21;;;;;;;11.07;7.03;;;;;;;15.45;nan;100778.50;5061448;28;20111;-76
2021/07/03 01:28:46;;;;;;;14.43;8.10;;;;;;;15.41;nan;100783.97;5062702;28;20033;-76
2021/07/03 01:31:12;;;;;;;9.70;7.75;;;;;;;15.36;nan;100775.19;5060191;28;20037;-76
2021/07/03 01:33:40;;;;;;;10.60;8.15;;;;;;;15.33;nan;100779.69;5062158;28;20056;-76
2021/07/03 01:36:05;;;;;;;9.13;7.35;;;;;;;15.32;nan;100775.25;5062212;28;20028;-76
2021/07/03 01:38:32;;;;;;;10.57;7.28;;;;;;;15.33;nan;100771.69;5060127;28;20064;-76
2021/07/03 01:41:03;;;;;;;10.07;7.47;;;;;;;15.30;nan;100774.44;5061069;28;20082;-76
2021/07/03 01:43:37;;;;;;;11.57;6.68;;;;;;;15.31;nan;100778.81;5058306;28;20279;-76
2021/07/03 01:46:04;;;;;;;12.40;6.93;;;;;;;15.21;nan;100779.94;5061936;28;20421;-76
2021/07/03 01:48:33;;;;;;;9.90;6.93;;;;;;;15.18;nan;100774.69;5062625;28;20036;-76
2021/07/03 01:51:01;;;;;;;11.77;7.60;;;;;;;15.16;nan;100776.50;5061234;28;20376;-76
2021/07/03 01:53:27;;;;;;;9.32;7.35;;;;;;;15.11;nan;100767.75;5060163;28;20098;-76
2021/07/03 01:55:56;;;;;;;9.93;8.25;;;;;;;15.08;nan;100765.16;5055784;28;20037;-76
2021/07/03 01:58:23;;;;;;;13.80;9.75;;;;;;;15.08;nan;100768.66;5061156;28;20466;-76
2021/07/03 02:00:59;;;;;;;10.55;7.63;;;;;;;15.07;nan;100758.97;5056398;28;20033;-76
2021/07/03 02:03:26;;;;;;;10.27;6.88;;;;;;;15.07;nan;100768.72;5060693;28;20502;-77
2021/07/03 02:05:52;;;;;;;9.70;7.47;;;;;;;15.09;nan;100772.19;5061904;28;20032;-76
2021/07/03 02:08:21;;;;;;;12.90;8.65;;;;;;;15.14;nan;100767.66;5061410;28;20411;-76
2021/07/03 02:11:01;;;;;;;11.23;7.00;;;;;;;15.17;nan;100767.63;5059441;28;20086;-76
2021/07/03 02:13:29;;;;;;;16.08;7.35;;;;;;;15.21;nan;100758.66;5060867;28;20067;-77
2021/07/03 02:15:55;;;;;;;9.25;6.65;;;;;;;15.37;nan;100758.31;5061595;28;20614;-76
2021/07/03 02:18:32;;;;;;;11.52;6.75;;;;;;;15.44;nan;100758.16;5058905;28;20036;-76
2021/07/03 02:21:01;;;;;;;11.18;7.88;;;;;;;15.52;nan;100757.97;5059242;28;20483;-76
2021/07/03 02:23:29;;;;;;;11.05;7.07;;;;;;;15.62;nan;100751.53;5062198;28;20107;-76
2021/07/03 02:25:57;;;;;;;12.10;7.97;;;;;;;15.68;nan;100753.19;5062768;28;20032;-76
2021/07/03 02:28:28;;;;;;;13.77;7.55;;;;;;;15.73;nan;100752.19;5056917;28;20029;-76
2021/07/03 02:31:00;;;;;;;;;;;;;;;15.78;nan;100741.44;5059405;28;20053;-76
2021/07/03 02:33:28;;;;;;;13.45;7.05;;;;;;;15.81;nan;100745.81;5061334;28;19916;-76
2021/07/03 02:35:58;;;;;;;10.20;7.47;;;;;;;15.88;nan;100748.28;5060835;28;20115;-76
2021/07/03 02:38:26;;;;;;;8.38;6.20;;;;;;;15.96;nan;100746.31;5058998;28;20043;-76
2021/07/03 02:40:52;;;;;;;13.55;8.57;;;;;;;15.87;nan;100749.19;5044094;28;20453;-77
2021/07/03 02:43:17;;;;;;;10.88;6.95;;;;;;;15.90;nan;100748.25;5062487;28;20032;-76
2021/07/03 02:45:48;;;;;;;12.40;6.80;;;;;;;15.96;nan;100748.09;5055265;28;20399;-76
2021/07/03 02:48:13;;;;;;;11.23;7.28;;;;;;;16.04;nan;100739.94;5060157;28;20040;-76
2021/07/03 02:50:39;;;;;;;10.00;6.40;;;;;;;16.10;nan;100748.63;5061597;28;20115;-76
2021/07/03 02:53:07;;;;;;;11.80;6.63;;;;;;;16.12;nan;100743.25;5055698;28;20403;-76
2021/07/03 02:55:33;;;;;;;9.60;7.18;;;;;;;16.13;nan;100751.19;5060953;28;20036;-76
2021/07/03 02:57:59;;;;;;;11.65;7.78;;;;;;;16.13;nan;100751.19;5061418;28;20082;-77
2021/07/03 03:00:25;;;;;;;10.60;8.15;;;;;;;16.14;nan;100750.31;5042236;28;20443;-76
2021/07/03 03:02:52;;;;;;;11.98;7.30;;;;;;;16.19;nan;100744.84;5059902;28;20078;-76
2021/07/03 03:05:18;;;;;;;9.38;6.43;;;;;;;16.18;nan;100743.09;5060583;28;20033;-76
2021/07/03 03:07:44;;;;;;;9.43;6.90;;;;;;;16.20;nan;100746.59;5042113;28;20040;-76
2021/07/03 03:10:13;;;;;;;15.40;10.00;;;;;;;16.21;nan;100738.56;5059796;28;20052;-77
2021/07/03 03:12:39;;;;;;;10.00;7.30;;;;;;;16.27;nan;100748.19;5062391;28;20076;-77
2021/07/03 03:15:07;;;;;;;14.50;7.38;;;;;;;16.28;nan;100743.75;5058824;28;20556;-76
2021/07/03 03:17:33;;;;;;;13.57;7.50;;;;;;;16.32;nan;100746.28;5059154;28;20071;-76
2021/07/03 03:19:59;;;;;;;17.23;9.63;;;;;;;16.36;nan;100747.94;5061145;28;20067;-76
2021/07/03 03:22:25;;;;;;;11.38;7.38;;;;;;;16.42;nan;100749.56;5051920;28;20457;-77
2021/07/03 03:24:51;;;;;;;11.27;6.70;;;;;;;16.47;nan;100747.66;5058772;28;20029;-76
2021/07/03 03:27:16;;;;;;;12.40;7.75;;;;;;;16.53;nan;100749.28;5062335;28;20086;-77
2021/07/03 03:29:45;;;;;;;13.90;8.93;;;;;;;16.58;nan;100742.94;5059085;28;20060;-77
2021/07/03 03:32:11;;;;;;;12.52;8.60;;;;;;;16.64;nan;100737.41;5059004;28;20071;-76
2021/07/03 03:34:36;;;;;;;11.95;7.18;;;;;;;16.71;nan;100732.78;5060729;28;20074;-76
2021/07/03 03:37:02;;;;;;;13.82;8.40;;;;;;;16.69;nan;100733.72;5057045;28;20029;-77
2021/07/03 03:39:30;;;;;;;14.63;7.68;;;;;;;16.67;nan;100746.25;5058427;28;20025;-76
2021/07/03 03:41:56;;;;;;;10.63;8.30;;;;;;;16.71;nan;100738.09;5058259;28;20022;-76
2021/07/03 03:44:22;;;;;;;12.60;8.15;;;;;;;16.78;nan;100745.03;5060051;28;20486;-77
2021/07/03 03:46:53;;;;;;;11.90;7.47;;;;;;;16.80;nan;100742.34;5059923;28;20494;-76
2021/07/03 03:49:23;;;;;;;11.68;7.75;;;;;;;16.82;nan;100741.38;5055789;28;20033;-76
2021/07/03 03:51:50;;;;;;;13.13;7.40;;;;;;;16.86;nan;100737.69;5059078;28;20086;-76
2021/07/03 03:54:17;;;;;;;12.48;7.60;;;;;;;16.93;nan;100737.53;5060564;28;20056;-77
2021/07/03 03:56:43;;;;;;;13.18;8.30;;;;;;;16.94;nan;100739.28;5058602;28;20112;-77
2021/07/03 03:59:10;;;;;;;12.98;7.90;;;;;;;16.98;nan;100730.28;5060265;28;20036;-76
2021/07/03 04:01:36;;;;;;;13.43;9.65;;;;;;;16.92;nan;100739.31;5044182;28;20039;-77
2021/07/03 04:04:03;;;;;;;14.75;8.07;;;;;;;16.93;nan;100738.41;5060012;28;20411;-76
2021/07/03 04:06:28;;;;;;;15.43;8.00;;;;;;;17.01;nan;100735.53;5058615;28;20033;-77
2021/07/03 04:08:53;;;;;;;12.13;6.63;;;;;;;17.05;nan;100732.69;5060747;28;20032;-76
2021/07/03 04:11:19;;;;;;;12.85;7.25;;;;;;;17.03;nan;100739.88;5059589;28;20403;-77
2021/07/03 04:13:44;;;;;;;9.95;6.18;;;;;;;17.11;nan;100741.44;5060413;28;20445;-76
2021/07/03 04:16:09;;;;;;;12.77;7.65;;;;;;;17.14;nan;100734.22;5061742;28;20029;-77
2021/07/03 04:18:35;;;;;;;12.25;7.55;;;;;;;17.25;nan;100739.25;5061649;28;20033;-77
2021/07/03 04:21:00;;;;;;;13.02;8.70;;;;;;;17.31;nan;100734.56;5064610;28;20032;-76
2021/07/03 04:23:26;;;;;;;19.38;10.50;;;;;;;17.28;nan;100742.69;5063827;28;20102;-77
2021/07/03 04:25:51;;;;;;;14.45;9.75;;;;;;;17.42;nan;100736.94;5062449;28;20044;-77
2021/07/03 04:28:16;;;;;;;12.63;8.43;;;;;;;17.49;nan;100743.81;5064693;28;20040;-77
2021/07/03 04:30:42;;;;;;;10.82;7.05;;;;;;;17.55;nan;100745.41;5063262;28;20041;-77
2021/07/03 04:33:07;;;;;;;14.98;7.47;;;;;;;17.50;nan;100742.91;5061407;28;20487;-77
2021/07/03 04:35:33;;;;;;;16.23;9.68;;;;;;;17.55;nan;100749.88;5064724;28;20051;-77
2021/07/03 04:37:58;;;;;;;13.93;8.02;;;;;;;17.63;nan;100747.84;5064161;28;20407;-77
2021/07/03 04:40:23;;;;;;;16.63;8.85;;;;;;;17.64;nan;100737.13;5061323;28;20039;-77
2021/07/03 04:42:49;;;;;;;16.50;9.20;;;;;;;17.70;nan;100746.72;5065272;28;20036;-76
2021/07/03 04:45:19;;;;;;;15.25;9.05;;;;;;;17.78;nan;100746.47;5062470;28;20045;-77
2021/07/03 04:47:44;;;;;;;15.02;7.72;;;;;;;17.86;nan;100740.00;5062470;28;20064;-77
2021/07/03 04:50:10;;;;;;;17.27;9.27;;;;;;;17.92;nan;100742.47;5064925;28;20029;-76
2021/07/03 04:52:36;;;;;;;14.20;8.82;;;;;;;17.93;nan;100744.22;5063865;28;20040;-77
2021/07/03 04:55:05;;;;;;;15.40;9.43;;;;;;;18.03;nan;100744.78;5060825;28;20037;-76
2021/07/03 04:57:30;;;;;;;12.70;8.95;;;;;;;18.05;nan;100744.72;5063109;28;20033;-77
2021/07/03 04:59:56;;;;;;;16.48;10.00;;;;;;;18.00;nan;100752.00;5063942;28;20039;-77
2021/07/03 05:02:21;;;;;;;14.20;9.13;;;;;;;18.06;nan;100752.69;5062237;28;20037;-77
2021/07/03 05:04:46;;;;;;;11.40;8.02;;;;;;;18.09;nan;100749.91;5064431;28;20040;-76
2021/07/03 05:07:12;;;;;;;13.30;9.48;;;;;;;18.07;nan;100753.56;5062106;28;20380;-76
2021/07/03 05:09:46;;;;;;;11.52;8.93;;;;;;;18.14;nan;100753.28;5062251;28;20024;-77
2021/07/03 05:12:11;;;;;;;12.77;8.02;;;;;;;18.09;nan;100749.03;5063635;28;20403;-77
2021/07/03 05:14:37;;;;;;;14.75;9.23;;;;;;;18.13;nan;100750.66;5063502;28;20403;-77
2021/07/03 05:17:02;;;;;;;16.52;8.98;;;;;;;18.23;nan;100759.25;5061909;28;20495;-76
2021/07/03 05:19:28;;;;;;;14.88;9.38;;;;;;;18.24;nan;100758.34;5062726;28;20043;-77
2021/07/03 05:21:53;;;;;;;13.60;9.35;;;;;;;18.43;nan;100758.56;5063510;28;20036;-76
2021/07/03 05:24:19;;;;;;;17.25;10.05;;;;;;;18.30;nan;100759.00;5061463;28;20076;-77
2021/07/03 05:26:44;;;;;;;12.90;8.73;;;;;;;18.46;nan;100759.31;5063994;28;20036;-76
2021/07/03 05:29:09;;;;;;;15.57;10.32;;;;;;;18.53;nan;100763.53;5062704;28;20044;-77
2021/07/03 05:31:35;;;;;;;17.20;11.63;;;;;;;18.48;nan;100767.31;5061849;28;20044;-77
2021/07/03 05:34:00;;;;;;;16.48;11.63;;;;;;;18.58;nan;100763.38;5064308;28;20115;-77
2021/07/03 05:36:26;;;;;;;20.08;11.02;;;;;;;18.76;nan;100765.44;5063200;28;20372;-77
2021/07/03 05:38:52;;;;;;;18.10;10.70;;;;;;;18.87;nan;100767.69;5058811;28;20491;-77
2021/07/03 05:41:18;;;;;;;19.20;11.93;;;;;;;18.98;nan;100756.59;5063950;28;20043;-77
2021/07/03 05:43:44;;;;;;;16.40;11.55;;;;;;;19.07;nan;100758.91;5062146;28;20180;-77
2021/07/03 05:46:11;;;;;;;17.05;11.82;;;;;;;19.11;nan;100757.88;5061912;28;20033;-77
2021/07/03 05:48:39;;;;;;;17.52;11.25;;;;;;;19.04;nan;100757.22;5064050;28;20495;-77
2021/07/03 05:51:04;;;;;;;19.08;11.52;;;;;;;19.00;nan;100755.63;5062170;28;20041;-76
2021/07/03 05:53:30;;;;;;;16.23;11.45;;;;;;;19.09;nan;100753.53;5061741;28;20090;-76
2021/07/03 05:55:55;;;;;;;16.60;11.82;;;;;;;18.97;nan;100755.75;5063504;28;20071;-77
2021/07/03 05:58:20;;;;;;;16.35;12.02;;;;;;;19.04;nan;100751.00;5060434;28;20033;-77
2021/07/03 06:00:46;;;;;;;17.63;11.93;;;;;;;19.07;nan;100758.06;5044314;28;20395;-77
2021/07/03 06:03:11;;;;;;;16.35;11.50;;;;;;;19.12;nan;100754.25;5063678;28;20376;-77
2021/07/03 06:05:37;;;;;;;20.23;13.05;;;;;;;18.96;nan;100761.13;5060878;28;20044;-77
2021/07/03 06:08:02;;;;;;;16.85;12.98;;;;;;;18.98;nan;100761.94;5062422;28;20024;-77
2021/07/03 06:10:28;;;;;;;16.98;11.60;;;;;;;19.15;nan;100755.94;5063329;28;20040;-77
2021/07/03 06:12:53;;;;;;;17.30;13.20;;;;;;;19.29;nan;100760.81;5060733;28;20044;-76
2021/07/03 06:15:18;;;;;;;16.75;12.43;;;;;;;19.40;nan;100758.56;5061956;28;20040;-76
2021/07/03 06:17:44;;;;;;;18.55;13.23;;;;;;;19.49;nan;100763.53;5062888;28;20028;-76
2021/07/03 06:20:10;;;;;;;16.40;12.00;;;;;;;19.54;nan;100763.38;5060567;28;20029;-76
2021/07/03 06:22:37;;;;;;;18.58;14.93;;;;;;;19.63;nan;100763.88;5061238;28;20033;-76
2021/07/03 06:25:04;;;;;;;18.70;13.07;;;;;;;19.76;nan;100760.75;5062216;28;20037;-76
2021/07/03 06:27:30;;;;;;;19.80;12.60;;;;;;;19.68;nan;100753.03;5060402;28;20076;-76
2021/07/03 06:29:56;;;;;;;17.65;14.13;;;;;;;19.87;nan;100753.16;5062193;28;20032;-76
2021/07/03 06:32:21;;;;;;;21.92;14.88;;;;;;;20.11;nan;100754.78;5062441;28;20032;-76
2021/07/03 06:34:46;;;;;;;16.08;12.45;;;;;;;20.41;nan;100751.75;5059963;28;20040;-76
2021/07/03 06:37:12;;;;;;;14.35;11.98;;;;;;;20.40;nan;100747.31;5062363;28;20499;-76
2021/07/03 06:39:37;;;;;;;16.85;12.93;;;;;;;20.42;nan;100749.94;5061183;28;20036;-76
2021/07/03 06:42:03;;;;;;;20.38;12.95;;;;;;;20.69;nan;100754.09;5058934;28;20056;-76
2021/07/03 06:44:28;;;;;;;17.30;12.93;;;;;;;20.44;nan;100754.28;5062502;28;20350;-76
2021/07/03 06:46:53;;;;;;;18.58;13.75;;;;;;;20.35;nan;100746.63;5060133;28;20032;-76
2021/07/03 06:49:19;;;;;;;15.05;12.65;;;;;;;20.44;nan;100742.72;5060392;28;20526;-76
2021/07/03 06:51:44;;;;;;;18.27;15.07;;;;;;;20.49;nan;100752.28;5061395;28;20037;-76
2021/07/03 06:54:10;;;;;;;17.25;13.98;;;;;;;20.39;nan;100756.31;5060740;28;20531;-76
2021/07/03 06:56:35;;;;;;;19.80;14.48;;;;;;;20.30;nan;100745.97;5059163;28;20369;-76
2021/07/03 06:59:01;;;;;;;15.98;13.02;;;;;;;20.38;nan;100742.97;5062764;28;20032;-76
2021/07/03 07:01:26;;;;;;;19.20;14.50;;;;;;;20.42;nan;100748.13;5060579;28;20037;-76
2021/07/03 07:03:52;;;;;;;21.98;16.60;;;;;;;20.58;nan;100740.31;5060937;28;20124;-76
2021/07/03 07:06:17;;;;;;;20.52;14.60;;;;;;;20.71;nan;100735.28;5062208;28;20060;-76
2021/07/03 07:08:43;;;;;;;21.45;16.10;;;;;;;20.87;nan;100733.63;5060188;28;20060;-76
2021/07/03 07:11:08;;;;;;;18.45;13.18;;;;;;;20.98;nan;100722.41;5061039;28;20105;-76
2021/07/03 07:13:34;;;;;;;19.17;13.52;;;;;;;21.02;nan;100732.94;5062398;28;20032;-76
2021/07/03 07:15:59;;;;;;;16.33;13.32;;;;;;;21.11;nan;100722.72;5059363;28;20036;-76
2021/07/03 07:18:24;;;;;;;19.15;15.18;;;;;;;21.21;nan;100729.38;5061417;28;20056;-76
2021/07/03 07:20:50;;;;;;;21.50;15.82;;;;;;;21.05;nan;100723.00;5060744;28;20033;-76
2021/07/03 07:23:15;;;;;;;22.33;18.35;;;;;;;21.28;nan;100725.47;5059767;28;20028;-76
2021/07/03 07:25:41;;;;;;;18.20;14.57;;;;;;;21.52;nan;100725.28;5062215;28;20560;-76
2021/07/03 07:28:07;;;;;;;17.48;14.45;;;;;;;21.43;nan;100719.41;5065234;28;20036;-76
2021/07/03 07:30:32;;;;;;;17.38;14.43;;;;;;;21.58;nan;100716.91;5067508;28;20119;-77
2021/07/03 07:32:58;;;;;;;19.58;14.23;;;;;;;21.62;nan;100721.19;5063415;28;20041;-76
2021/07/03 07:35:23;;;;;;;19.08;15.40;;;;;;;21.53;nan;100713.56;5060924;28;20048;-76
2021/07/03 07:37:49;;;;;;;18.30;15.00;;;;;;;21.59;nan;100710.59;5062303;28;20042;-76
2021/07/03 07:40:16;;;;;;;18.08;14.25;;;;;;;21.71;nan;100707.28;5056179;28;20044;-76
2021/07/03 07:42:41;;;;;;;16.55;13.85;;;;;;;21.73;nan;100705.41;5059576;28;20086;-76
2021/07/03 07:45:08;;;;;;;16.95;13.32;;;;;;;21.83;nan;100717.44;5061801;28;20032;-76
2021/07/03 07:47:33;;;;;;;16.75;14.18;;;;;;;21.48;nan;100707.56;5055902;28;20029;-76
2021/07/03 07:49:59;;;;;;;16.35;13.52;;;;;;;21.27;nan;100702.25;5061015;28;20048;-76
2021/07/03 07:52:24;;;;;;;15.57;13.02;;;;;;;21.27;nan;100704.06;5065644;28;20047;-76
2021/07/03 07:54:49;;;;;;;17.15;12.48;;;;;;;21.37;nan;100705.38;5062980;28;20403;-76
2021/07/03 07:57:15;;;;;;;14.98;12.05;;;;;;;21.38;nan;100699.97;5063989;28;20498;-76
2021/07/03 07:59:40;;;;;;;15.55;11.98;;;;;;;21.49;nan;100701.25;5065301;28;20031;-76
2021/07/03 08:02:06;;;;;;;20.73;12.98;;;;;;;21.36;nan;100692.91;5063226;28;20506;-76
2021/07/03 08:04:32;;;;;;;15.23;11.90;;;;;;;21.34;nan;100700.16;5065129;28;20032;-76
2021/07/03 08:06:57;;;;;;;14.45;11.88;;;;;;;21.13;nan;100699.34;5064668;28;20040;-76
2021/07/03 08:09:22;;;;;;;16.35;12.38;;;;;;;21.02;nan;100689.13;5063138;28;20045;-76
2021/07/03 08:11:48;;;;;;;15.52;13.88;;;;;;;21.01;nan;100685.59;5065591;28;20131;-76
2021/07/03 08:14:13;;;;;;;16.20;10.95;;;;;;;21.17;nan;100683.03;5064116;28;20106;-76
2021/07/03 08:16:38;;;;;;;16.25;12.55;;;;;;;21.27;nan;100690.63;5063138;28;20059;-76
2021/07/03 08:19:04;;;;;;;14.85;11.70;;;;;;;21.13;nan;100680.56;5065548;28;20127;-76
2021/07/03 08:21:29;;;;;;;15.82;11.00;;;;;;;21.30;nan;100679.75;5063645;28;20069;-76
2021/07/03 08:23:54;;;;;;;11.98;9.65;;;;;;;21.34;nan;100684.91;5063526;28;20103;-76
2021/07/03 08:26:20;;;;;;;11.95;9.93;;;;;;;21.34;nan;100681.34;5065200;28;20086;-76
2021/07/03 08:28:45;;;;;;;13.30;9.90;;;;;;;21.57;nan;100680.28;5063213;28;20082;-76
2021/07/03 08:31:10;;;;;;;14.68;10.02;;;;;;;21.84;nan;100676.19;5063810;28;20032;-76
2021/07/03 08:33:36;;;;;;;12.32;10.30;;;;;;;22.01;nan;100672.66;5065355;28;20032;-76
2021/07/03 08:36:02;;;;;;;12.75;8.50;;;;;;;22.15;nan;100663.88;5063379;28;20099;-76
2021/07/03 08:38:27;;;;;;;14.70;10.32;;;;;;;22.18;nan;100660.16;5064004;28;20032;-76
2021/07/03 08:40:55;;;;;;;13.65;9.20;;;;;;;22.52;nan;100664.63;5064974;28;20036;-76
2021/07/03 08:43:20;;;;;;;12.05;10.55;;;;;;;22.69;nan;100655.66;5058799;28;20039;-76
2021/07/03 08:45:45;;;;;;;10.60;8.45;;;;;;;22.90;nan;100656.31;5063697;28;20025;-76
2021/07/03 08:48:17;;;;;;;9.30;7.40;;;;;;;23.02;nan;100661.00;5064763;28;20043;-76
2021/07/03 08:50:42;;;;;;;10.38;6.90;;;;;;;22.96;nan;100655.97;5059554;28;20033;-76
2021/07/03 08:53:08;;;;;;;9.65;8.35;;;;;;;23.09;nan;100648.97;5063288;28;20044;-76
2021/07/03 08:55:34;;;;;;;8.73;7.75;;;;;;;23.00;nan;100652.16;5064654;28;20040;-76
2021/07/03 08:58:04;;;;;;;9.25;7.05;;;;;;;23.17;nan;100648.53;5061297;28;20056;-76
2021/07/03 09:00:41;;;;;;;12.05;7.53;;;;;;;22.97;nan;100655.03;5062926;28;20486;-76
2021/07/03 09:03:13;;;;;;;9.68;6.50;;;;;;;22.83;nan;100654.91;5059481;28;20033;-76
2021/07/03 09:05:39;;;;;;;8.82;5.72;;;;;;;22.87;nan;100643.00;5060262;28;20032;-76
2021/07/03 09:08:06;;;;;;;8.63;5.68;;;;;;;22.72;nan;100653.66;5064579;28;20044;-76
2021/07/03 09:10:35;;;;;;;9.30;6.35;;;;;;;22.58;nan;100641.91;5063810;28;20047;-76
2021/07/03 09:13:01;;;;;;;8.05;6.22;;;;;;;22.72;nan;100636.66;5061949;28;20124;-76
2021/07/03 09:15:32;;;;;;;6.93;5.43;;;;;;;23.04;nan;100642.97;5063368;28;20040;-76
2021/07/03 09:18:01;;;;;;;8.48;5.68;;;;;;;23.55;nan;100632.88;5064480;28;20111;-76
2021/07/03 09:20:41;;;;;;;8.27;6.28;;;;;;;23.98;nan;100643.81;5062462;28;20033;-76
2021/07/03 09:23:12;;;;;;;9.07;6.07;;;;;;;23.88;nan;100634.53;5061665;28;20408;-76
2021/07/03 09:25:41;;;;;;;8.60;6.33;;;;;;;23.95;nan;100638.59;5062289;28;20032;-77
2021/07/03 09:28:18;;;;;;;9.02;5.93;;;;;;;24.41;nan;100629.50;5064408;28;20043;-76
2021/07/03 09:30:46;;;;;;;13.57;6.57;;;;;;;24.56;nan;100633.13;5062945;28;20037;-77
2021/07/03 09:33:22;;;;;;;10.85;6.20;;;;;;;24.27;nan;100630.38;5058400;28;20072;-76
2021/07/03 09:35:57;;;;;;;8.48;6.75;;;;;;;24.28;nan;100637.50;5061174;28;20045;-76
2021/07/03 09:38:32;;;;;;;8.55;7.07;;;;;;;24.36;nan;100634.31;5062749;28;20075;-76
2021/07/03 09:41:18;;;;;;;9.13;6.53;;;;;;;24.11;nan;100632.28;5057790;28;20106;-76
2021/07/03 09:43:50;;;;;;;8.82;6.25;;;;;;;24.30;nan;100630.19;5058458;28;20407;-76
2021/07/03 09:46:36;;;;;;;8.48;5.72;;;;;;;24.43;nan;100623.06;5060178;28;20070;-76
2021/07/03 09:49:05;;;;;;;5.60;4.53;;;;;;;24.23;nan;100627.00;5062483;28;20036;-76
2021/07/03 09:51:40;;;;;;;6.00;4.60;;;;;;;24.27;nan;100625.84;5057061;28;20033;-76
2021/07/03 09:54:07;;;;;;;6.40;4.97;;;;;;;24.25;nan;100626.91;5061247;28;20041;-76
2021/07/03 09:56:33;;;;;;;7.10;5.15;;;;;;;24.39;nan;100624.22;5061937;28;20040;-76
2021/07/03 09:58:58;;;;;;;6.22;4.78;;;;;;;24.71;nan;100629.47;5062718;28;20113;-76
2021/07/03 10:01:24;;;;;;;6.00;4.63;;;;;;;24.69;nan;100621.44;5061432;28;20032;-76
2021/07/03 10:03:49;;;;;;;6.55;5.03;;;;;;;24.96;nan;100617.94;5057480;28;20044;-77
2021/07/03 10:06:21;;;;;;;6.38;5.05;;;;;;;25.13;nan;100619.53;5062047;28;20121;-76
2021/07/03 10:08:51;;;;;;;6.72;5.30;;;;;;;25.26;nan;100615.09;5063687;28;20044;-77
2021/07/03 10:11:20;;;;;;;7.68;5.18;;;;;;;25.19;nan;100624.56;5062086;28;20036;-77
2021/07/03 10:13:47;;;;;;;7.82;5.22;;;;;;;25.17;nan;100623.78;5060034;28;20040;-77
2021/07/03 10:16:14;;;;;;;7.95;4.88;;;;;;;25.19;nan;100615.59;5062377;28;20060;-77
2021/07/03 10:18:39;;;;;;;6.68;4.97;;;;;;;25.51;nan;100619.72;5062489;28;20044;-77
2021/07/03 10:21:20;;;;;;;6.72;5.25;;;;;;;25.61;nan;100619.13;5060664;28;20032;-77
2021/07/03 10:23:46;;;;;;;6.55;4.68;;;;;;;25.73;nan;100612.88;5061039;28;20103;-77
2021/07/03 10:26:12;;;;;;;7.63;4.03;;;;;;;25.57;nan;100608.50;5061698;28;20035;-77
2021/07/03 10:28:41;;;;;;;6.85;4.28;;;;;;;25.16;nan;100608.56;5061587;28;20119;-76
2021/07/03 10:31:08;;;;;;;6.18;4.55;;;;;;;24.74;nan;100613.06;5060560;28;20059;-77
2021/07/03 10:33:48;;;;;;;5.43;4.32;;;;;;;25.07;nan;100603.72;5056984;28;20044;-77
2021/07/03 10:36:23;;;;;;;7.45;4.53;;;;;;;25.45;nan;100608.47;5058748;28;20033;-77
2021/07/03 10:38:48;;;;;;;5.72;4.43;;;;;;;25.66;nan;100609.72;5061084;28;20074;-77
2021/07/03 10:41:19;;;;;;;5.10;4.13;;;;;;;25.93;nan;100598.88;5063011;28;20623;-76
2021/07/03 10:43:46;;;;;;;5.80;3.87;;;;;;;26.11;nan;100588.59;5060356;28;20045;-77
2021/07/03 10:46:12;;;;;;;5.25;3.63;;;;;;;26.42;nan;100581.88;5060030;28;20029;-77
2021/07/03 10:48:37;;;;;;;7.85;4.57;;;;;;;26.61;nan;100581.44;5057563;28;20479;-77
2021/07/03 10:51:13;;;;;;;5.47;3.90;;;;;;;26.44;nan;100585.34;5061825;28;20463;-77
2021/07/03 10:53:38;;;;;;;6.22;3.97;;;;;;;26.34;nan;100575.31;5062781;28;20029;-77
2021/07/03 10:56:11;;;;;;;5.95;4.20;;;;;;;26.12;nan;100573.25;5060888;28;20387;-77
2021/07/03 10:58:38;;;;;;;5.75;4.60;;;;;;;26.16;nan;100567.50;5060198;28;20090;-77
2021/07/03 11:01:14;;;;;;;5.97;4.35;;;;;;;25.96;nan;100571.63;5061956;28;20037;-77
2021/07/03 11:03:50;;;;;;;8.10;4.55;;;;;;;25.70;nan;100568.00;5062731;28;20032;-77
2021/07/03 11:06:17;;;;;;;6.18;4.13;;;;;;;25.05;nan;100570.59;5061687;28;20101;-77
2021/07/03 11:08:44;;;;;;;5.40;4.53;;;;;;;24.88;nan;100566.28;5059997;28;20037;-76
2021/07/03 11:11:11;;;;;;;6.75;3.42;;;;;;;25.00;nan;100570.03;5061649;28;20115;-76
2021/07/03 11:13:37;;;;;;;5.30;3.55;;;;;;;25.13;nan;100573.63;5063206;28;20173;-76
2021/07/03 11:16:03;;;;;;;4.72;3.58;;;;;;;25.28;nan;100564.56;5062269;28;20037;-76
2021/07/03 11:18:31;;;;;;;5.38;3.50;;;;;;;25.52;nan;100580.06;5061068;28;20037;-76
2021/07/03 11:21:01;;;;;;;5.72;4.05;;;;;;;25.79;nan;100569.19;5058568;28;20090;-76
2021/07/03 11:23:27;;;;;;;5.15;3.28;;;;;;;25.92;nan;100567.41;5057318;28;20036;-76
2021/07/03 11:25:53;;;;;;;4.25;2.67;;;;;;;26.29;nan;100545.00;5059945;28;20048;-77
2021/07/03 11:28:20;;;;;;;5.40;3.38;;;;;;;26.64;nan;100551.44;5061253;28;20039;-77
2021/07/03 11:30:55;;;;;;;5.38;3.28;;;;;;;27.05;nan;100552.94;5060377;28;20118;-76
2021/07/03 11:33:21;;;;;;;5.75;3.40;;;;;;;26.55;nan;100554.84;5059583;28;20040;-76